Time;durP1;ratioP1;P1;durP2;ratioP2;P2;SDS_P1;SDS_P2;PMS_P1;PMS_P2;Temp;Humidity;BMP_temperature;BMP_pressure;BME280_temperature;BME280_humidity;BME280_pressure;Samples;Min_cycle;Max_cycle;Signal;HPM_P1;HPM_P2
2021/08/28 00:02:02;;;;;;;13.60;9.50;;;;;;;13.81;70.60;98754.62;231705;1211;139682;-64
2021/08/28 00:07:06;;;;;;;16.20;9.20;;;;;;;13.76;70.57;98754.27;231791;1211;138708;-64
2021/08/28 00:12:09;;;;;;;14.90;10.30;;;;;;;13.70;70.63;98753.63;231670;1212;139103;-62
2021/08/28 00:17:12;;;;;;;18.30;9.20;;;;;;;13.67;70.54;98759.96;231824;1212;139434;-61
2021/08/28 00:22:15;;;;;;;15.50;9.30;;;;;;;13.64;70.58;98764.86;231621;1211;139318;-67
2021/08/28 00:27:18;;;;;;;13.00;9.50;;;;;;;13.58;70.41;98760.84;231931;1212;138537;-66
2021/08/28 00:32:21;;;;;;;17.90;9.80;;;;;;;13.55;70.53;98772.14;231879;1211;138449;-64
2021/08/28 00:37:24;;;;;;;14.70;9.90;;;;;;;13.55;70.82;98771.14;232062;1208;138720;-67
2021/08/28 00:42:27;;;;;;;19.40;10.00;;;;;;;13.56;70.75;98769.93;231644;1212;140226;-61
2021/08/28 00:47:30;;;;;;;16.40;10.30;;;;;;;13.52;70.45;98764.02;231939;1212;139047;-63
2021/08/28 00:52:34;;;;;;;18.70;11.20;;;;;;;13.47;70.57;98769.37;231940;1211;138710;-61
2021/08/28 00:57:37;;;;;;;19.10;11.60;;;;;;;13.44;70.83;98772.45;231889;1212;142070;-64
2021/08/28 01:02:43;;;;;;;23.50;11.60;;;;;;;13.42;70.67;98777.23;231680;1211;138630;-64
2021/08/28 01:08:15;;;;;;;18.30;10.60;;;;;;;13.35;70.68;98774.06;231810;1212;138524;-60
2021/08/28 01:13:53;;;;;;;16.50;10.90;;;;;;;13.27;70.55;98779.55;231705;1211;140315;-65
2021/08/28 01:18:57;;;;;;;19.20;11.50;;;;;;;13.24;70.71;98785.08;231867;1212;139147;-70
2021/08/28 01:24:07;;;;;;;16.70;10.80;;;;;;;13.20;70.81;98783.90;231886;1211;138705;-64
2021/08/28 01:29:34;;;;;;;21.80;11.10;;;;;;;13.14;70.70;98786.88;232038;1211;139214;-64
2021/08/28 01:34:38;;;;;;;15.50;10.50;;;;;;;13.06;70.85;98788.55;231685;1211;139247;-64
2021/08/28 01:39:45;;;;;;;16.90;10.40;;;;;;;12.97;70.56;98788.02;232090;1211;138330;-62
2021/08/28 01:44:58;;;;;;;16.30;10.50;;;;;;;12.91;70.69;98793.43;231312;1211;138936;-64
2021/08/28 01:50:03;;;;;;;17.80;11.30;;;;;;;12.90;70.92;98790.86;232042;1211;138584;-66
2021/08/28 01:55:08;;;;;;;16.50;11.60;;;;;;;12.91;71.06;98797.17;231832;1211;139561;-60
2021/08/28 02:00:57;;;;;;;19.00;11.00;;;;;;;12.87;70.87;98802.46;232047;1210;138084;-69
2021/08/28 02:06:28;;;;;;;16.30;10.30;;;;;;;12.79;71.03;98799.36;231979;1211;139546;-64
2021/08/28 02:11:39;;;;;;;15.40;9.90;;;;;;;12.74;70.84;98802.90;232172;1211;139541;-64
2021/08/28 02:16:45;;;;;;;16.90;10.00;;;;;;;12.76;71.27;98804.69;231058;1211;139261;-66
2021/08/28 02:21:53;;;;;;;17.20;10.60;;;;;;;12.77;71.06;98801.27;231501;1211;138764;-64
2021/08/28 02:27:22;;;;;;;17.30;10.00;;;;;;;12.76;71.16;98801.69;231984;1211;138459;-67
2021/08/28 02:32:28;;;;;;;17.80;10.30;;;;;;;12.70;70.98;98803.58;232108;1211;138374;-68
2021/08/28 02:37:38;;;;;;;14.30;9.90;;;;;;;12.66;71.13;98805.80;231876;1211;139063;-64
2021/08/28 02:42:44;;;;;;;16.20;9.90;;;;;;;12.66;71.19;98799.80;231498;1211;139331;-67
2021/08/28 02:47:50;;;;;;;16.60;10.80;;;;;;;12.68;71.32;98800.85;231869;1211;138186;-65
2021/08/28 02:52:57;;;;;;;15.50;10.30;;;;;;;12.71;71.48;98808.84;232308;1211;139212;-63
2021/08/28 02:58:02;;;;;;;;;;;;;;;12.68;71.24;98803.52;232277;1211;138311;-67
2021/08/28 03:03:09;;;;;;;14.90;10.80;;;;;;;12.64;71.34;98804.89;231813;1211;124821;-66
2021/08/28 03:08:15;;;;;;;19.00;11.10;;;;;;;12.59;71.17;98806.02;231967;1211;138433;-68
2021/08/28 03:13:21;;;;;;;15.90;10.40;;;;;;;12.54;71.04;98810.77;232285;1211;139073;-66
2021/08/28 03:18:26;;;;;;;16.80;10.90;;;;;;;12.52;71.01;98821.08;232041;1211;139261;-68
2021/08/28 03:23:31;;;;;;;18.20;10.40;;;;;;;12.51;70.99;98816.30;232222;1211;138392;-68
2021/08/28 03:28:36;;;;;;;;;;;;;;;12.48;71.02;98812.15;231637;1211;139341;-63
2021/08/28 03:33:40;;;;;;;16.00;11.00;;;;;;;12.39;71.13;98810.12;232180;1211;125344;-66
2021/08/28 03:38:45;;;;;;;16.50;10.90;;;;;;;12.26;70.89;98815.88;232024;1211;139093;-63
2021/08/28 03:43:50;;;;;;;16.90;10.50;;;;;;;12.15;70.98;98818.96;231732;1211;139507;-65
2021/08/28 03:48:53;;;;;;;14.60;10.30;;;;;;;12.11;70.77;98815.89;232039;1211;139018;-65
2021/08/28 03:53:56;;;;;;;17.60;10.30;;;;;;;12.06;70.88;98810.02;231658;1211;138762;-64
2021/08/28 03:58:59;;;;;;;16.40;9.90;;;;;;;12.00;71.05;98808.67;231944;1211;138984;-67
2021/08/28 04:04:03;;;;;;;12.50;9.90;;;;;;;11.95;71.21;98810.45;231970;1211;138294;-67
2021/08/28 04:09:07;;;;;;;14.50;9.20;;;;;;;11.93;71.27;98806.89;231514;1211;138830;-69
2021/08/28 04:14:10;;;;;;;16.40;9.10;;;;;;;11.91;71.30;98804.90;232223;1211;139137;-64
2021/08/28 04:19:13;;;;;;;13.70;9.00;;;;;;;11.92;71.14;98801.98;231887;1211;139276;-65
2021/08/28 04:24:21;;;;;;;16.20;9.50;;;;;;;11.92;71.35;98805.91;231929;1211;139069;-66
2021/08/28 04:29:44;;;;;;;12.50;9.30;;;;;;;11.91;71.38;98809.17;232140;1208;139140;-66
2021/08/28 04:34:47;;;;;;;12.30;8.50;;;;;;;11.88;71.50;98814.19;232144;1211;138293;-67
2021/08/28 04:39:50;;;;;;;11.40;7.80;;;;;;;11.86;71.30;98814.69;232162;1211;139197;-66
2021/08/28 04:44:54;;;;;;;10.90;8.00;;;;;;;11.88;71.57;98818.63;232073;1211;139023;-64
2021/08/28 04:49:57;;;;;;;9.20;7.20;;;;;;;11.92;71.41;98820.79;232162;1211;138940;-65
2021/08/28 04:55:06;;;;;;;9.30;7.40;;;;;;;11.98;71.52;98825.92;232050;1211;138682;-65
2021/08/28 05:00:10;;;;;;;9.90;7.40;;;;;;;12.06;71.76;98832.06;232055;1211;138948;-66
2021/08/28 05:05:31;;;;;;;10.00;6.90;;;;;;;12.14;71.64;98833.46;232154;1211;138325;-65
2021/08/28 05:10:35;;;;;;;10.40;6.90;;;;;;;12.22;71.77;98830.40;231986;1211;139555;-64
2021/08/28 05:15:40;;;;;;;10.90;6.90;;;;;;;12.29;71.96;98827.88;231974;1211;139646;-68
2021/08/28 05:20:43;;;;;;;13.50;8.10;;;;;;;12.39;71.91;98827.06;232192;1211;138920;-65
2021/08/28 05:26:24;;;;;;;12.90;7.50;;;;;;;12.47;71.84;98833.38;232298;1211;138232;-63
2021/08/28 05:31:27;;;;;;;12.90;8.50;;;;;;;12.50;71.72;98831.92;231948;1211;138101;-64
2021/08/28 05:36:31;;;;;;;14.20;7.80;;;;;;;12.57;71.64;98830.17;231800;1211;142784;-64
2021/08/28 05:41:52;;;;;;;10.40;7.30;;;;;;;12.64;71.73;98828.73;231772;1211;139402;-65
2021/08/28 05:46:55;;;;;;;11.30;7.50;;;;;;;12.74;71.75;98832.63;232208;1211;138981;-62
2021/08/28 05:51:58;;;;;;;12.70;7.40;;;;;;;12.83;71.86;98835.90;231868;1211;138715;-64
2021/08/28 05:57:02;;;;;;;10.80;7.90;;;;;;;12.91;71.87;98838.29;232208;1208;139248;-63
2021/08/28 06:02:05;;;;;;;11.80;7.30;;;;;;;13.03;71.86;98841.36;231619;1210;138546;-64
2021/08/28 06:07:10;;;;;;;;;;;;;;;13.12;71.76;98838.84;232140;1211;139585;-64
2021/08/28 06:12:13;;;;;;;11.50;8.00;;;;;;;13.19;71.73;98836.38;231997;1211;125005;-61
2021/08/28 06:17:37;;;;;;;12.40;8.10;;;;;;;13.26;71.84;98839.23;231993;1211;138326;-64
2021/08/28 06:22:40;;;;;;;10.40;7.40;;;;;;;13.32;71.56;98840.79;231467;1211;138521;-66
2021/08/28 06:27:43;;;;;;;13.10;7.50;;;;;;;13.35;71.57;98839.63;232143;1211;138145;-63
2021/08/28 06:32:49;;;;;;;10.00;6.60;;;;;;;13.41;71.92;98835.44;231994;1211;140130;-63
2021/08/28 06:37:53;;;;;;;7.40;5.40;;;;;;;13.52;71.74;98832.30;232055;1211;138927;-64
2021/08/28 06:43:14;;;;;;;9.50;5.20;;;;;;;13.67;71.71;98836.08;232510;1211;138964;-64
2021/08/28 06:48:36;;;;;;;26.20;15.60;;;;;;;13.84;71.74;98832.27;232000;1211;138747;-64
2021/08/28 06:53:57;;;;;;;9.90;4.70;;;;;;;14.40;73.06;98838.29;231984;1211;138802;-64
2021/08/28 06:59:33;;;;;;;62.10;43.40;;;;;;;14.71;71.76;98836.85;231950;1211;138136;-65
2021/08/28 07:04:56;;;;;;;7.00;4.40;;;;;;;14.95;71.40;98832.57;231928;1211;139034;-67
2021/08/28 07:10:11;;;;;;;61.70;44.80;;;;;;;15.05;70.77;98829.27;231936;1211;139031;-68
2021/08/28 07:15:14;;;;;;;12.20;9.10;;;;;;;15.30;71.73;98828.54;231739;1211;231057;-60
2021/08/28 07:20:28;;;;;;;14.70;10.00;;;;;;;15.73;71.48;98832.41;231860;1211;138637;-64
2021/08/28 07:25:39;;;;;;;93.70;62.90;;;;;;;16.11;71.45;98828.52;232063;1211;138869;-68
2021/08/28 07:30:42;;;;;;;13.90;10.50;;;;;;;16.42;70.56;98822.77;232025;1211;139888;-68
2021/08/28 07:35:46;;;;;;;13.20;9.80;;;;;;;16.63;69.83;98829.98;232184;1211;138674;-64
2021/08/28 07:40:49;;;;;;;17.20;11.50;;;;;;;16.78;69.52;98831.21;232190;1211;139773;-65
2021/08/28 07:45:52;;;;;;;9.50;6.10;;;;;;;16.91;69.29;98829.78;231870;1212;139119;-63
2021/08/28 07:51:00;;;;;;;13.20;6.70;;;;;;;16.98;68.50;98828.64;231883;1211;138903;-62
2021/08/28 07:56:05;;;;;;;14.30;6.90;;;;;;;17.05;68.30;98829.83;232110;1212;137863;-62
2021/08/28 08:01:11;;;;;;;7.60;5.20;;;;;;;17.17;68.36;98831.23;231902;1212;139550;-66
2021/08/28 08:06:18;;;;;;;10.00;4.20;;;;;;;17.32;67.83;98825.33;232016;1211;138870;-60
2021/08/28 08:11:40;;;;;;;128.30;87.20;;;;;;;17.34;67.63;98822.11;232134;1211;139251;-64
2021/08/28 08:17:03;;;;;;;12.30;6.50;;;;;;;17.47;67.55;98821.23;231869;1211;139360;-62
2021/08/28 08:22:26;;;;;;;12.50;7.80;;;;;;;17.63;67.22;98824.58;232123;1211;138185;-62
2021/08/28 08:27:43;;;;;;;8.70;6.50;;;;;;;17.71;67.05;98825.58;231721;1211;139031;-65
2021/08/28 08:32:57;;;;;;;74.70;47.20;;;;;;;17.81;66.75;98820.02;232010;1211;138104;-64
2021/08/28 08:38:03;;;;;;;8.50;6.30;;;;;;;17.86;66.27;98819.84;232077;1211;138326;-67
2021/08/28 08:43:07;;;;;;;10.80;6.70;;;;;;;17.87;65.76;98822.88;232194;1211;138569;-62
2021/08/28 08:48:12;;;;;;;24.90;15.40;;;;;;;17.88;65.68;98819.60;232093;1211;138897;-65
2021/08/28 08:53:20;;;;;;;20.00;12.70;;;;;;;17.96;65.70;98823.41;231806;1211;139800;-62
2021/08/28 08:58:36;;;;;;;13.20;7.00;;;;;;;17.98;65.20;98823.01;232034;1211;138637;-60
2021/08/28 09:03:40;;;;;;;91.30;64.80;;;;;;;17.99;64.93;98822.98;231993;1211;138283;-63
2021/08/28 09:08:46;;;;;;;8.00;5.90;;;;;;;18.08;64.94;98823.27;232173;1211;138534;-60
2021/08/28 09:13:51;;;;;;;19.50;12.00;;;;;;;18.16;64.75;98820.73;232262;1211;138898;-60
2021/08/28 09:18:54;;;;;;;8.30;7.30;;;;;;;18.23;64.73;98824.38;231463;1211;139312;-59
2021/08/28 09:24:06;;;;;;;18.90;9.50;;;;;;;18.27;64.37;98823.64;232121;1211;138480;-61
2021/08/28 09:29:12;;;;;;;112.60;69.40;;;;;;;18.32;64.09;98821.55;232083;1211;139266;-60
2021/08/28 09:34:23;;;;;;;35.50;20.90;;;;;;;18.42;64.12;98817.10;231119;1211;139100;-61
2021/08/28 09:39:45;;;;;;;15.90;11.50;;;;;;;18.51;64.03;98815.14;232121;1211;138585;-61
2021/08/28 09:44:50;;;;;;;4.40;3.10;;;;;;;18.58;63.61;98810.14;232075;1211;138956;-63
2021/08/28 09:49:53;;;;;;;4.30;2.70;;;;;;;18.64;63.32;98807.98;232371;1211;139034;-61
2021/08/28 09:54:56;;;;;;;3.70;2.40;;;;;;;18.69;62.82;98810.71;232258;1211;138209;-63
2021/08/28 10:00:01;;;;;;;10.20;5.80;;;;;;;18.74;62.70;98810.84;232225;1211;137790;-63
2021/08/28 10:05:15;;;;;;;4.60;2.80;;;;;;;18.83;62.63;98819.41;232210;1211;139339;-63
2021/08/28 10:10:18;;;;;;;4.80;2.90;;;;;;;18.90;62.37;98820.83;232277;1211;138195;-62
2021/08/28 10:15:22;;;;;;;4.30;1.80;;;;;;;18.95;62.18;98818.27;232232;1211;139023;-62
2021/08/28 10:20:27;;;;;;;9.40;2.60;;;;;;;18.92;62.05;98819.19;232247;1211;138668;-62
2021/08/28 10:25:32;;;;;;;8.50;2.70;;;;;;;18.87;61.95;98815.70;232163;1211;138678;-63
2021/08/28 10:30:35;;;;;;;4.70;2.30;;;;;;;18.91;62.29;98811.74;232141;1211;138775;-62
2021/08/28 10:35:39;;;;;;;8.60;2.20;;;;;;;18.96;62.17;98807.85;232054;1211;138521;-62
2021/08/28 10:40:43;;;;;;;5.50;1.70;;;;;;;19.02;61.88;98807.41;232339;1211;138531;-63
2021/08/28 10:45:48;;;;;;;4.40;1.60;;;;;;;19.02;61.31;98805.66;232226;1211;138452;-62
2021/08/28 10:51:34;;;;;;;1.50;1.40;;;;;;;19.01;61.11;98803.97;232196;1210;138711;-62
2021/08/28 10:56:54;;;;;;;2.00;1.40;;;;;;;19.12;60.73;98802.45;232188;1211;138268;-61
2021/08/28 11:02:06;;;;;;;2.30;1.40;;;;;;;19.24;60.22;98804.67;232371;1211;139117;-61
2021/08/28 11:07:41;;;;;;;2.70;1.60;;;;;;;19.40;60.04;98804.60;232179;1211;138740;-62
2021/08/28 11:12:57;;;;;;;4.50;1.80;;;;;;;19.42;59.77;98806.98;232276;1211;138117;-61
2021/08/28 11:18:09;;;;;;;6.00;1.40;;;;;;;19.38;59.78;98802.45;232203;1211;138167;-61
2021/08/28 11:23:15;;;;;;;3.80;1.70;;;;;;;19.43;59.86;98797.52;232193;1210;138290;-62
2021/08/28 11:28:21;;;;;;;3.30;1.80;;;;;;;19.68;60.07;98793.38;232182;1211;138661;-62
2021/08/28 11:33:24;;;;;;;;;;;;;;;19.85;60.08;98794.79;232150;1211;138787;-64
2021/08/28 11:38:32;;;;;;;5.60;1.70;;;;;;;19.85;59.69;98808.44;232270;1211;124593;-63
2021/08/28 11:43:43;;;;;;;3.80;2.00;;;;;;;19.74;59.68;98808.39;232339;1211;138260;-62
2021/08/28 11:48:47;;;;;;;4.80;1.70;;;;;;;19.62;59.78;98809.77;232251;1211;138202;-62
2021/08/28 11:53:54;;;;;;;3.40;1.70;;;;;;;19.50;59.78;98821.07;232057;1211;138637;-62
2021/08/28 11:59:03;;;;;;;2.90;1.80;;;;;;;19.41;59.86;98819.24;232152;1211;138139;-62
2021/08/28 12:04:07;;;;;;;4.50;1.80;;;;;;;19.32;60.10;98825.44;232121;1211;139055;-63
2021/08/28 12:09:12;;;;;;;7.60;1.80;;;;;;;19.28;60.23;98823.34;232247;1211;139684;-64
2021/08/28 12:14:15;;;;;;;2.60;1.60;;;;;;;19.26;60.37;98819.05;232235;1211;138159;-61
2021/08/28 12:19:21;;;;;;;3.70;1.80;;;;;;;19.25;60.37;98824.56;232226;1211;138793;-60
2021/08/28 12:24:28;;;;;;;6.30;2.20;;;;;;;19.25;60.38;98819.84;232190;1211;138948;-61
2021/08/28 12:29:33;;;;;;;4.00;1.90;;;;;;;19.30;60.59;98817.88;232002;1211;139287;-61
2021/08/28 12:34:44;;;;;;;3.70;2.20;;;;;;;19.37;60.35;98819.00;232227;1211;137965;-61
2021/08/28 12:39:49;;;;;;;3.70;2.20;;;;;;;19.36;60.39;98824.06;232114;1211;138110;-60
2021/08/28 12:44:56;;;;;;;3.80;1.70;;;;;;;19.33;60.49;98829.27;232190;1211;138657;-62
2021/08/28 12:50:00;;;;;;;4.70;1.90;;;;;;;19.31;60.44;98826.95;232249;1211;138030;-61
2021/08/28 12:55:04;;;;;;;3.70;2.40;;;;;;;19.31;60.60;98817.81;232108;1211;138125;-61
2021/08/28 13:00:08;;;;;;;3.30;2.50;;;;;;;19.34;60.61;98807.23;232143;1211;138620;-62
2021/08/28 13:05:32;;;;;;;4.10;1.90;;;;;;;19.53;60.56;98798.05;232006;1211;138766;-60
2021/08/28 13:10:35;;;;;;;7.80;2.00;;;;;;;19.88;60.81;98791.56;232094;1211;138461;-60
2021/08/28 13:15:43;;;;;;;3.60;2.10;;;;;;;20.36;60.62;98784.38;232162;1211;138428;-60
2021/08/28 13:20:46;;;;;;;5.00;2.00;;;;;;;20.91;59.99;98787.31;232136;1211;138937;-59
2021/08/28 13:25:50;;;;;;;3.50;2.00;;;;;;;21.27;59.48;98778.95;232226;1211;138221;-61
2021/08/28 13:31:13;;;;;;;2.70;1.80;;;;;;;21.34;58.56;98774.61;232175;1211;138407;-63
2021/08/28 13:36:16;;;;;;;2.50;2.00;;;;;;;21.60;58.71;98768.61;232213;1211;138453;-61
2021/08/28 13:41:19;;;;;;;2.80;1.60;;;;;;;21.93;58.16;98757.23;232131;1211;138258;-64
2021/08/28 13:46:22;;;;;;;4.80;2.00;;;;;;;21.93;57.48;98753.21;232069;1211;138869;-61
2021/08/28 13:51:25;;;;;;;4.60;2.20;;;;;;;21.77;56.86;98759.85;232174;1210;138753;-63
2021/08/28 13:56:28;;;;;;;2.70;2.00;;;;;;;21.55;56.37;98763.48;232175;1211;138509;-62
2021/08/28 14:01:31;;;;;;;4.40;2.30;;;;;;;21.29;56.33;98757.64;232345;1208;138094;-63
2021/08/28 14:06:35;;;;;;;5.00;2.30;;;;;;;21.03;56.94;98758.58;232324;1211;138113;-58
2021/08/28 14:11:38;;;;;;;5.30;2.20;;;;;;;20.80;57.28;98759.30;232209;1211;138413;-59
2021/08/28 14:16:41;;;;;;;4.30;2.20;;;;;;;20.63;57.53;98761.69;232195;1211;138753;-59
2021/08/28 14:21:45;;;;;;;2.60;2.00;;;;;;;20.48;57.61;98760.14;232063;1211;138089;-59
2021/08/28 14:26:49;;;;;;;2.60;1.80;;;;;;;20.38;57.73;98761.82;232145;1211;138389;-59
2021/08/28 14:31:52;;;;;;;2.70;1.90;;;;;;;20.30;57.80;98765.48;232201;1211;138402;-59
2021/08/28 14:36:56;;;;;;;3.40;1.90;;;;;;;20.25;57.88;98766.85;231928;1208;138990;-59
2021/08/28 14:41:59;;;;;;;4.40;2.00;;;;;;;20.18;58.19;98770.95;232070;1211;138383;-59
2021/08/28 14:47:03;;;;;;;2.20;1.80;;;;;;;20.09;58.05;98767.96;232078;1211;138358;-60
2021/08/28 14:52:06;;;;;;;3.10;1.90;;;;;;;19.99;58.45;98766.61;232127;1211;138024;-59
2021/08/28 14:57:09;;;;;;;4.30;2.10;;;;;;;19.91;58.68;98763.88;232186;1211;138606;-58
2021/08/28 15:02:12;;;;;;;2.70;1.90;;;;;;;19.84;58.47;98766.61;232222;1211;138048;-60
2021/08/28 15:07:16;;;;;;;4.50;1.90;;;;;;;19.78;58.60;98766.54;232043;1211;137962;-60
2021/08/28 15:12:19;;;;;;;1.80;1.60;;;;;;;19.72;58.43;98765.56;232194;1211;138437;-59
2021/08/28 15:17:22;;;;;;;8.70;2.20;;;;;;;19.66;58.56;98759.23;232188;1211;139016;-58
2021/08/28 15:22:25;;;;;;;3.90;2.10;;;;;;;19.61;58.66;98761.58;232183;1211;138404;-59
2021/08/28 15:27:30;;;;;;;2.50;1.90;;;;;;;19.57;58.46;98772.69;232052;1211;138239;-58
2021/08/28 15:32:34;;;;;;;4.70;2.20;;;;;;;19.52;58.59;98771.14;232099;1211;138617;-58
2021/08/28 15:37:38;;;;;;;4.80;2.00;;;;;;;19.50;58.93;98768.88;232154;1211;138730;-58
2021/08/28 15:42:41;;;;;;;5.00;2.00;;;;;;;19.46;58.93;98762.60;232067;1211;138411;-58
2021/08/28 15:47:44;;;;;;;3.80;2.10;;;;;;;19.40;58.83;98758.18;232165;1211;138479;-63
2021/08/28 15:52:47;;;;;;;4.00;2.30;;;;;;;19.34;58.92;98763.12;232111;1210;138825;-59
2021/08/28 15:57:51;;;;;;;3.20;2.20;;;;;;;19.32;59.02;98757.65;232154;1210;139381;-59
2021/08/28 16:02:54;;;;;;;5.30;2.30;;;;;;;19.26;59.09;98763.60;232220;1211;139368;-59
2021/08/28 16:07:58;;;;;;;4.40;2.10;;;;;;;19.24;59.25;98767.61;232319;1211;139140;-61
2021/08/28 16:13:01;;;;;;;2.90;2.00;;;;;;;19.19;58.81;98764.52;231782;1211;138372;-61
2021/08/28 16:18:06;;;;;;;2.60;2.10;;;;;;;19.09;58.56;98767.28;231982;1211;140010;-60
2021/08/28 16:23:10;;;;;;;2.80;2.00;;;;;;;19.01;58.58;98769.54;231880;1210;138661;-60
2021/08/28 16:28:13;;;;;;;3.00;2.10;;;;;;;18.94;58.87;98767.93;232124;1211;138547;-57
2021/08/28 16:33:16;;;;;;;8.00;2.10;;;;;;;18.95;59.56;98763.58;232076;1211;138579;-58
2021/08/28 16:38:22;;;;;;;7.10;2.10;;;;;;;18.97;59.75;98762.80;232263;1211;141103;-58
2021/08/28 16:43:25;;;;;;;5.10;1.90;;;;;;;19.01;60.13;98761.71;232158;1211;139570;-58
2021/08/28 16:48:29;;;;;;;5.20;2.20;;;;;;;19.06;60.27;98757.36;232214;1211;138596;-60
2021/08/28 16:53:32;;;;;;;4.20;2.10;;;;;;;19.11;60.31;98754.38;232191;1211;138989;-59
2021/08/28 16:58:37;;;;;;;5.30;2.40;;;;;;;19.13;60.48;98750.32;232237;1211;138839;-60
2021/08/28 17:03:44;;;;;;;5.40;3.10;;;;;;;19.17;60.78;98759.55;232225;1211;138449;-59
2021/08/28 17:08:48;;;;;;;6.10;3.60;;;;;;;19.17;61.00;98758.04;232165;1210;138447;-58
2021/08/28 17:13:51;;;;;;;4.70;3.00;;;;;;;19.17;61.38;98756.65;231944;1211;138636;-59
2021/08/28 17:18:55;;;;;;;4.80;3.00;;;;;;;19.14;61.37;98763.20;232173;1211;138209;-59
2021/08/28 17:23:58;;;;;;;6.00;2.90;;;;;;;19.10;61.43;98760.41;232254;1211;138835;-59
2021/08/28 17:29:01;;;;;;;7.90;3.20;;;;;;;19.07;61.35;98772.59;231383;1211;138350;-60
2021/08/28 17:34:04;;;;;;;9.10;3.60;;;;;;;19.01;61.14;98777.67;232088;1211;138908;-59
2021/08/28 17:39:07;;;;;;;6.40;3.30;;;;;;;18.96;60.88;98780.35;232164;1208;138639;-61
2021/08/28 17:44:10;;;;;;;10.90;4.50;;;;;;;18.88;60.69;98784.42;232274;1211;140415;-59
2021/08/28 17:49:14;;;;;;;17.00;4.60;;;;;;;18.86;61.37;98782.62;232239;1211;138949;-60
2021/08/28 17:54:17;;;;;;;6.30;3.70;;;;;;;18.87;61.68;98782.73;232233;1210;139098;-60
2021/08/28 17:59:20;;;;;;;6.60;4.00;;;;;;;18.87;61.83;98784.88;232199;1211;139662;-60
2021/08/28 18:04:23;;;;;;;9.40;4.30;;;;;;;18.86;62.13;98779.89;232107;1211;138768;-58
2021/08/28 18:09:26;;;;;;;25.60;17.30;;;;;;;18.84;62.12;98784.19;232328;1211;139425;-59
2021/08/28 18:14:30;;;;;;;25.40;17.30;;;;;;;18.86;62.37;98794.59;231761;1210;139399;-60
2021/08/28 18:19:33;;;;;;;19.90;15.30;;;;;;;18.89;62.26;98794.65;232361;1211;139777;-60
2021/08/28 18:24:37;;;;;;;19.50;10.80;;;;;;;18.95;62.27;98801.14;232192;1211;139257;-59
2021/08/28 18:29:40;;;;;;;16.60;9.80;;;;;;;18.97;62.30;98807.22;232206;1211;138712;-59
2021/08/28 18:34:43;;;;;;;18.50;8.90;;;;;;;19.00;62.48;98808.94;232240;1206;139247;-60
2021/08/28 18:39:46;;;;;;;14.90;7.20;;;;;;;18.98;62.43;98815.80;232193;1211;138947;-59
2021/08/28 18:44:50;;;;;;;13.60;7.10;;;;;;;18.94;62.81;98816.67;232210;1211;140206;-62
2021/08/28 18:49:53;;;;;;;12.70;6.40;;;;;;;18.95;63.11;98817.52;232344;1211;139357;-60
2021/08/28 18:54:56;;;;;;;10.60;6.60;;;;;;;18.89;63.14;98816.98;232189;1210;139260;-60
2021/08/28 18:59:59;;;;;;;13.20;6.80;;;;;;;18.89;63.27;98814.30;232156;1210;139321;-62
2021/08/28 19:05:03;;;;;;;15.40;7.90;;;;;;;18.96;63.56;98811.67;231954;1211;139228;-60
2021/08/28 19:10:07;;;;;;;25.50;16.30;;;;;;;19.01;63.47;98816.40;232189;1211;138524;-60
2021/08/28 19:15:10;;;;;;;83.40;58.80;;;;;;;19.03;63.57;98818.81;232147;1211;138981;-59
2021/08/28 19:20:13;;;;;;;125.40;88.10;;;;;;;19.07;63.63;98820.55;232326;1211;138809;-59
2021/08/28 19:25:16;;;;;;;367.30;327.30;;;;;;;19.05;63.37;98826.29;232187;1211;139373;-60
2021/08/28 19:30:20;;;;;;;20.60;16.00;;;;;;;18.88;62.62;98821.55;232208;1211;138937;-60
2021/08/28 19:35:26;;;;;;;13.10;7.90;;;;;;;18.61;62.07;98824.77;232233;1211;138620;-61
2021/08/28 19:40:32;;;;;;;13.00;6.80;;;;;;;18.33;62.18;98824.36;232155;1211;138872;-59
2021/08/28 19:45:35;;;;;;;15.30;6.90;;;;;;;18.10;62.27;98822.25;232188;1211;139824;-60
2021/08/28 19:50:38;;;;;;;11.50;6.80;;;;;;;17.94;62.76;98822.53;232287;1211;138942;-60
2021/08/28 19:55:42;;;;;;;14.20;7.60;;;;;;;17.84;63.00;98822.95;232337;1210;138862;-61
2021/08/28 20:00:46;;;;;;;13.90;6.70;;;;;;;17.74;63.13;98822.77;232112;1211;138208;-60
2021/08/28 20:05:49;;;;;;;15.60;7.20;;;;;;;17.62;63.12;98818.76;232209;1211;139253;-61
2021/08/28 20:10:52;;;;;;;11.00;7.00;;;;;;;17.50;63.54;98809.61;232250;1211;139210;-61
2021/08/28 20:15:56;;;;;;;12.10;6.60;;;;;;;17.36;63.59;98808.57;232094;1211;140242;-61
2021/08/28 20:20:59;;;;;;;12.30;6.60;;;;;;;17.30;64.08;98808.81;232016;1211;139544;-60
2021/08/28 20:26:02;;;;;;;15.80;6.80;;;;;;;17.29;64.31;98810.19;232321;1211;138875;-60
2021/08/28 20:31:05;;;;;;;14.40;7.20;;;;;;;17.27;64.43;98810.34;232297;1211;138905;-60
2021/08/28 20:36:09;;;;;;;13.50;8.00;;;;;;;17.25;64.57;98813.74;232140;1211;138918;-60
2021/08/28 20:41:12;;;;;;;12.60;7.70;;;;;;;17.22;64.73;98820.14;232253;1211;138577;-60
2021/08/28 20:46:15;;;;;;;13.70;8.10;;;;;;;17.16;64.70;98814.98;231942;1211;139157;-60
2021/08/28 20:51:18;;;;;;;12.30;7.70;;;;;;;17.07;64.71;98809.00;232097;1211;138567;-60
2021/08/28 20:56:21;;;;;;;13.80;7.20;;;;;;;17.02;64.70;98809.05;232156;1211;139101;-61
2021/08/28 21:01:24;;;;;;;11.70;7.90;;;;;;;17.01;64.95;98803.98;232037;1211;139456;-60
2021/08/28 21:06:28;;;;;;;12.80;9.10;;;;;;;17.00;65.02;98805.48;232119;1211;139277;-60
2021/08/28 21:11:31;;;;;;;17.80;9.00;;;;;;;16.96;64.97;98804.46;232194;1211;138953;-61
2021/08/28 21:16:34;;;;;;;17.10;9.50;;;;;;;16.89;65.12;98800.95;232137;1211;139634;-60
2021/08/28 21:21:37;;;;;;;12.90;8.10;;;;;;;16.82;65.12;98797.66;232128;1211;139000;-60
2021/08/28 21:26:40;;;;;;;14.10;8.40;;;;;;;16.73;65.34;98797.94;232236;1211;139118;-60
2021/08/28 21:31:44;;;;;;;12.90;8.20;;;;;;;16.69;65.33;98796.84;232291;1211;140530;-60
2021/08/28 21:36:47;;;;;;;12.60;8.30;;;;;;;16.68;65.67;98797.52;232200;1211;138681;-60
2021/08/28 21:41:55;;;;;;;15.20;8.20;;;;;;;16.66;65.80;98794.41;232147;1211;138565;-60
2021/08/28 21:46:58;;;;;;;14.50;8.70;;;;;;;16.60;65.84;98792.87;232027;1211;138383;-60
2021/08/28 21:52:01;;;;;;;17.60;9.10;;;;;;;16.51;65.94;98788.05;232155;1211;139855;-62
2021/08/28 21:57:04;;;;;;;12.90;8.70;;;;;;;16.46;65.91;98788.56;232257;1211;140733;-61
2021/08/28 22:02:14;;;;;;;16.20;9.00;;;;;;;16.42;65.98;98785.84;232297;1211;139021;-61
2021/08/28 22:07:55;;;;;;;15.40;9.70;;;;;;;16.42;66.21;98790.71;232144;1211;138650;-61
2021/08/28 22:13:12;;;;;;;15.20;9.50;;;;;;;16.37;66.11;98795.11;232179;1212;139091;-64
2021/08/28 22:18:21;;;;;;;16.50;9.50;;;;;;;16.33;66.46;98796.86;231890;1211;138339;-61
2021/08/28 22:23:24;;;;;;;20.30;10.10;;;;;;;16.28;66.37;98798.36;231755;1211;138694;-59
2021/08/28 22:28:27;;;;;;;16.50;10.50;;;;;;;16.24;66.41;98804.72;231946;1212;139644;-60
2021/08/28 22:33:30;;;;;;;19.30;11.00;;;;;;;16.24;66.24;98800.96;232177;1211;139049;-59
2021/08/28 22:38:33;;;;;;;14.90;10.30;;;;;;;16.28;66.27;98801.45;232221;1211;139102;-59
2021/08/28 22:43:36;;;;;;;16.40;10.40;;;;;;;16.31;66.31;98801.66;231972;1211;139008;-60
2021/08/28 22:48:40;;;;;;;14.20;9.90;;;;;;;16.32;66.24;98801.43;232155;1208;139137;-60
2021/08/28 22:53:43;;;;;;;15.80;9.90;;;;;;;16.27;66.05;98798.27;232199;1211;138593;-61
2021/08/28 22:58:46;;;;;;;18.20;10.30;;;;;;;16.23;65.78;98796.73;232059;1211;138706;-61
2021/08/28 23:03:49;;;;;;;15.80;10.20;;;;;;;16.21;65.66;98790.84;232211;1211;139366;-61
2021/08/28 23:08:52;;;;;;;19.20;10.70;;;;;;;16.22;65.69;98784.98;232200;1211;139330;-60
2021/08/28 23:13:55;;;;;;;16.90;10.50;;;;;;;16.24;65.72;98781.74;232280;1211;138560;-60
2021/08/28 23:18:58;;;;;;;17.90;10.50;;;;;;;16.23;65.70;98776.45;232204;1211;138951;-60